createdAt,value
2022-12-14T00:00:16.984Z,12
2022-12-14T00:05:17.129Z,14
2022-12-14T00:10:16.893Z,12
2022-12-14T00:15:16.871Z,11
2022-12-14T00:20:16.901Z,11
2022-12-14T00:25:17.093Z,13
2022-12-14T00:30:17.072Z,14
2022-12-14T00:35:16.942Z,13
2022-12-14T00:40:16.982Z,11
2022-12-14T00:45:17.024Z,11
2022-12-14T00:50:16.974Z,10
2022-12-14T00:55:17.066Z,10
2022-12-14T01:00:17.080Z,8
2022-12-14T01:05:17.110Z,7
2022-12-14T01:10:17.133Z,7
2022-12-14T01:15:17.081Z,9
2022-12-14T01:20:17.039Z,12
2022-12-14T01:25:17.146Z,10
2022-12-14T01:30:17.095Z,12
2022-12-14T01:35:17.054Z,12
2022-12-14T01:40:17.185Z,10
2022-12-14T01:45:17.217Z,9
2022-12-14T01:50:17.151Z,11
2022-12-14T01:55:17.244Z,10
2022-12-14T02:00:17.278Z,11
2022-12-14T02:05:17.141Z,9
2022-12-14T02:10:17.191Z,9
2022-12-14T02:15:17.169Z,9
2022-12-14T02:20:17.260Z,9
2022-12-14T02:25:17.310Z,7
2022-12-14T02:30:17.177Z,7
2022-12-14T02:35:17.284Z,8
2022-12-14T02:40:17.204Z,8
2022-12-14T02:45:17.200Z,8
2022-12-14T02:50:17.289Z,11
2022-12-14T02:55:17.333Z,10
2022-12-14T03:00:17.331Z,12
2022-12-14T03:05:17.301Z,12
2022-12-14T03:10:17.302Z,12
2022-12-14T03:15:17.243Z,14
2022-12-14T03:20:17.327Z,14
2022-12-14T03:25:17.244Z,12
2022-12-14T03:30:27.155Z,13
2022-12-14T03:35:17.276Z,13
2022-12-14T03:40:17.329Z,13
2022-12-14T03:45:17.356Z,13
2022-12-14T03:50:15.435Z,14
2022-12-14T03:55:15.296Z,15
2022-12-14T04:00:15.431Z,13
2022-12-14T04:05:15.424Z,12
2022-12-14T04:10:15.464Z,11
2022-12-14T04:15:15.448Z,11
2022-12-14T04:20:15.630Z,10
2022-12-14T04:25:15.471Z,10
2022-12-14T04:30:15.759Z,10
2022-12-14T04:35:15.666Z,10
2022-12-14T04:40:15.655Z,10
2022-12-14T04:45:15.504Z,10
2022-12-14T04:50:15.687Z,13
2022-12-14T04:55:15.550Z,14
2022-12-14T05:00:16.659Z,14
2022-12-14T05:05:16.537Z,15
2022-12-14T05:10:16.538Z,15
2022-12-14T05:15:16.546Z,15
2022-12-14T05:20:16.778Z,16
2022-12-14T05:25:16.645Z,16
2022-12-14T05:30:16.659Z,16
2022-12-14T05:35:16.656Z,11
2022-12-14T05:40:16.605Z,10
2022-12-14T05:45:16.685Z,15
2022-12-14T05:50:16.620Z,16
2022-12-14T05:55:16.714Z,14
2022-12-14T06:00:16.681Z,15
2022-12-14T06:05:16.730Z,15
2022-12-14T06:10:16.906Z,12
2022-12-14T06:15:16.750Z,13
2022-12-14T06:20:16.761Z,14
2022-12-14T06:25:16.818Z,16
2022-12-14T06:30:16.773Z,16
2022-12-14T06:35:16.715Z,14
2022-12-14T06:40:16.808Z,13
2022-12-14T06:45:16.659Z,11
2022-12-14T06:50:16.941Z,13
2022-12-14T06:55:16.921Z,14
2022-12-14T07:00:17.038Z,14
2022-12-14T07:05:16.882Z,13
2022-12-14T07:10:16.988Z,14
2022-12-14T07:15:16.816Z,18
2022-12-14T07:20:16.880Z,18
2022-12-14T07:25:16.918Z,18
2022-12-14T07:30:16.865Z,17
2022-12-14T07:35:17.063Z,18
2022-12-14T07:40:16.900Z,17
2022-12-14T07:45:16.884Z,17
2022-12-14T07:50:16.928Z,19
2022-12-14T07:55:16.891Z,17
2022-12-14T08:00:17.253Z,18
2022-12-14T08:05:17.020Z,17
2022-12-14T08:10:16.891Z,15
2022-12-14T08:15:17.008Z,14
2022-12-14T08:20:16.963Z,14
2022-12-14T08:25:16.985Z,16
2022-12-14T08:30:17.013Z,19
2022-12-14T08:35:17.192Z,20
2022-12-14T08:40:17.206Z,15
2022-12-14T08:45:17.082Z,17
2022-12-14T08:50:17.220Z,17
2022-12-14T08:55:18.177Z,17
2022-12-14T09:00:17.096Z,20
2022-12-14T09:05:17.105Z,20
2022-12-14T09:10:17.115Z,19
2022-12-14T09:15:17.220Z,20
2022-12-14T09:20:17.319Z,19
2022-12-14T09:25:17.072Z,22
2022-12-14T09:30:21.722Z,17
2022-12-14T09:35:17.228Z,15
2022-12-14T09:40:17.331Z,19
2022-12-14T09:45:17.274Z,20
2022-12-14T09:50:17.414Z,19
2022-12-14T09:55:17.336Z,17
2022-12-14T10:00:17.204Z,20
2022-12-14T10:05:17.204Z,22
2022-12-14T10:10:17.312Z,24
2022-12-14T10:15:17.208Z,21
2022-12-14T10:20:17.406Z,21
2022-12-14T10:25:17.306Z,20
2022-12-14T10:30:17.332Z,23
2022-12-14T10:35:17.327Z,20
2022-12-14T10:40:27.463Z,21
2022-12-14T10:45:39.875Z,22
2022-12-14T10:50:17.337Z,20
2022-12-14T10:55:17.445Z,20
2022-12-14T11:00:23.145Z,19
2022-12-14T11:05:17.384Z,22
2022-12-14T11:10:17.443Z,24
2022-12-14T11:15:17.346Z,23
2022-12-14T11:20:15.578Z,26
2022-12-14T11:25:15.735Z,25
2022-12-14T11:30:15.649Z,25
2022-12-14T11:35:15.631Z,23
2022-12-14T11:40:15.716Z,21
2022-12-14T11:45:15.714Z,23
2022-12-14T11:50:15.498Z,22
2022-12-14T11:55:15.673Z,23
2022-12-14T12:00:15.743Z,21
2022-12-14T12:05:15.818Z,23
2022-12-14T12:10:15.722Z,25
2022-12-14T12:15:15.533Z,21
2022-12-14T12:20:15.688Z,23
2022-12-14T12:25:36.797Z,22
2022-12-14T12:30:15.906Z,21
2022-12-14T12:35:15.649Z,23
2022-12-14T12:40:15.963Z,22
2022-12-14T12:45:15.760Z,22
2022-12-14T12:50:15.584Z,22
2022-12-14T12:55:15.669Z,22
2022-12-14T13:00:15.530Z,21
2022-12-14T13:05:45.189Z,23
2022-12-14T13:10:15.732Z,20
2022-12-14T13:15:15.700Z,20
2022-12-14T13:20:15.642Z,23
2022-12-14T13:25:15.818Z,24
2022-12-14T13:30:15.659Z,22
2022-12-14T13:35:15.750Z,23
2022-12-14T13:40:15.760Z,22
2022-12-14T13:45:15.712Z,22
2022-12-14T13:51:01.071Z,19
2022-12-14T13:55:15.649Z,20
2022-12-14T14:00:15.804Z,20
2022-12-14T14:05:15.759Z,21
2022-12-14T14:10:15.927Z,21
2022-12-14T14:15:18.842Z,20
2022-12-14T14:20:15.789Z,20
2022-12-14T14:25:15.774Z,19
2022-12-14T14:30:15.802Z,19
2022-12-14T14:35:16.181Z,18
2022-12-14T14:40:23.803Z,19
2022-12-14T14:45:15.969Z,23
2022-12-14T14:50:15.871Z,22
2022-12-14T14:55:50.738Z,22
2022-12-14T15:00:15.841Z,22
2022-12-14T15:05:51.593Z,22
2022-12-14T15:10:22.237Z,21
2022-12-14T15:15:15.987Z,21
2022-12-14T15:20:21.336Z,23
2022-12-14T15:25:15.863Z,21
2022-12-14T15:30:16.042Z,20
2022-12-14T15:35:15.973Z,24
2022-12-14T15:40:16.214Z,21
2022-12-14T15:45:15.955Z,22
2022-12-14T15:50:15.995Z,22
2022-12-14T15:55:15.903Z,19
2022-12-14T16:00:16.193Z,22
2022-12-14T16:05:16.007Z,19
2022-12-14T16:10:16.066Z,22
2022-12-14T16:15:16.130Z,17
2022-12-14T16:20:16.049Z,20
2022-12-14T16:25:16.051Z,23
2022-12-14T16:30:16.085Z,21
2022-12-14T16:35:16.109Z,24
2022-12-14T16:40:16.565Z,24
2022-12-14T16:45:16.071Z,23
2022-12-14T16:50:17.893Z,23
2022-12-14T16:55:16.438Z,25
2022-12-14T17:00:16.092Z,23
2022-12-14T17:05:16.124Z,24
2022-12-14T17:10:16.228Z,19
2022-12-14T17:15:16.317Z,21
2022-12-14T17:20:16.213Z,17
2022-12-14T17:25:16.168Z,19
2022-12-14T17:30:16.140Z,18
2022-12-14T17:35:16.205Z,18
2022-12-14T17:40:16.151Z,21
2022-12-14T17:45:16.568Z,21
2022-12-14T17:50:16.251Z,20
2022-12-14T17:55:16.226Z,16
2022-12-14T18:00:16.345Z,17
2022-12-14T18:05:16.403Z,19
2022-12-14T18:10:16.175Z,16
2022-12-14T18:15:16.343Z,18
2022-12-14T18:20:16.540Z,15
2022-12-14T18:25:16.383Z,17
2022-12-14T18:30:16.980Z,18
2022-12-14T18:35:17.219Z,14
2022-12-14T18:40:16.488Z,14
2022-12-14T18:45:18.691Z,15
2022-12-14T18:50:16.434Z,13
2022-12-14T18:55:16.444Z,13
2022-12-14T19:00:16.354Z,13
2022-12-14T19:05:16.516Z,13
2022-12-14T19:10:16.366Z,13
2022-12-14T19:15:17.199Z,14
2022-12-14T19:20:16.522Z,15
2022-12-14T19:25:16.567Z,12
2022-12-14T19:30:16.460Z,14
2022-12-14T19:35:16.479Z,13
2022-12-14T19:40:16.507Z,12
2022-12-14T19:45:16.553Z,10
2022-12-14T19:50:16.552Z,14
2022-12-14T19:55:16.464Z,17
2022-12-14T20:00:17.102Z,16
2022-12-14T20:05:16.595Z,16
2022-12-14T20:10:16.586Z,19
2022-12-14T20:15:16.703Z,22
2022-12-14T20:20:16.701Z,22
2022-12-14T20:25:16.552Z,20
2022-12-14T20:30:16.637Z,18
2022-12-14T20:35:16.603Z,16
2022-12-14T20:40:16.600Z,16
2022-12-14T20:45:16.766Z,15
2022-12-14T20:50:16.705Z,17
2022-12-14T20:55:16.632Z,14
2022-12-14T21:00:16.707Z,14
2022-12-14T21:05:16.947Z,14
2022-12-14T21:10:17.161Z,14
2022-12-14T21:15:16.663Z,13
2022-12-14T21:20:16.780Z,15
2022-12-14T21:25:17.233Z,16
2022-12-14T21:30:16.837Z,17
2022-12-14T21:35:16.763Z,16
2022-12-14T21:40:16.892Z,14
2022-12-14T21:45:16.846Z,17
2022-12-14T21:50:16.842Z,21
2022-12-14T21:55:17.054Z,21
2022-12-14T22:00:16.826Z,20
2022-12-14T22:05:16.811Z,19
2022-12-14T22:10:22.793Z,15
2022-12-14T22:15:16.854Z,15
2022-12-14T22:20:17.120Z,14
2022-12-14T22:25:16.798Z,10
2022-12-14T22:30:16.852Z,12
2022-12-14T22:35:17.010Z,14
2022-12-14T22:40:16.919Z,10
2022-12-14T22:45:16.843Z,11
2022-12-14T22:50:16.924Z,11
2022-12-14T22:55:17.220Z,9
2022-12-14T23:00:16.887Z,10
2022-12-14T23:05:16.892Z,11
2022-12-14T23:10:17.213Z,10
2022-12-14T23:15:17.291Z,10
2022-12-14T23:20:17.090Z,11
2022-12-14T23:25:17.006Z,10
2022-12-14T23:30:17.033Z,11
2022-12-14T23:35:17.039Z,10
2022-12-14T23:40:17.105Z,9
2022-12-14T23:45:17.023Z,9
2022-12-14T23:50:17.182Z,11
2022-12-14T23:55:17.063Z,9
